sensor_id;sensor_type;location;lat;lon;timestamp;P1;durP1;ratioP1;P2;durP2;ratioP2
42110;SDS011;27766;52.174;5.456;2022-11-14T00:01:18;24.60;;;17.20;;
42110;SDS011;27766;52.174;5.456;2022-11-14T00:03:48;27.08;;;17.80;;
42110;SDS011;27766;52.174;5.456;2022-11-14T00:06:16;22.55;;;17.05;;
42110;SDS011;27766;52.174;5.456;2022-11-14T00:08:43;23.52;;;18.05;;
42110;SDS011;27766;52.174;5.456;2022-11-14T00:11:10;30.15;;;20.98;;
42110;SDS011;27766;52.174;5.456;2022-11-14T00:13:37;24.95;;;18.73;;
42110;SDS011;27766;52.174;5.456;2022-11-14T00:16:05;30.80;;;20.35;;
42110;SDS011;27766;52.174;5.456;2022-11-14T00:18:32;26.25;;;20.58;;
42110;SDS011;27766;52.174;5.456;2022-11-14T00:21:00;26.67;;;20.20;;
42110;SDS011;27766;52.174;5.456;2022-11-14T00:23:27;27.85;;;20.17;;
42110;SDS011;27766;52.174;5.456;2022-11-14T00:25:54;30.00;;;21.70;;
42110;SDS011;27766;52.174;5.456;2022-11-14T00:28:21;33.90;;;23.17;;
42110;SDS011;27766;52.174;5.456;2022-11-14T00:30:48;31.90;;;23.48;;
42110;SDS011;27766;52.174;5.456;2022-11-14T00:33:17;29.58;;;21.10;;
42110;SDS011;27766;52.174;5.456;2022-11-14T00:35:53;32.60;;;22.33;;
42110;SDS011;27766;52.174;5.456;2022-11-14T00:38:22;36.80;;;23.90;;
42110;SDS011;27766;52.174;5.456;2022-11-14T00:40:49;30.42;;;22.50;;
42110;SDS011;27766;52.174;5.456;2022-11-14T00:43:16;34.28;;;25.17;;
42110;SDS011;27766;52.174;5.456;2022-11-14T00:45:43;36.70;;;25.27;;
42110;SDS011;27766;52.174;5.456;2022-11-14T00:48:11;44.15;;;24.40;;
42110;SDS011;27766;52.174;5.456;2022-11-14T00:50:41;31.20;;;23.70;;
42110;SDS011;27766;52.174;5.456;2022-11-14T00:53:09;32.83;;;23.80;;
42110;SDS011;27766;52.174;5.456;2022-11-14T00:55:36;34.83;;;24.55;;
42110;SDS011;27766;52.174;5.456;2022-11-14T00:58:05;32.05;;;24.30;;
42110;SDS011;27766;52.174;5.456;2022-11-14T01:00:32;33.80;;;25.23;;
42110;SDS011;27766;52.174;5.456;2022-11-14T01:02:59;35.47;;;25.10;;
42110;SDS011;27766;52.174;5.456;2022-11-14T01:05:27;38.67;;;26.13;;
42110;SDS011;27766;52.174;5.456;2022-11-14T01:07:54;46.47;;;25.85;;
42110;SDS011;27766;52.174;5.456;2022-11-14T01:10:21;38.92;;;25.42;;
42110;SDS011;27766;52.174;5.456;2022-11-14T01:12:48;44.10;;;26.10;;
42110;SDS011;27766;52.174;5.456;2022-11-14T01:15:15;36.28;;;24.65;;
42110;SDS011;27766;52.174;5.456;2022-11-14T01:17:42;36.28;;;25.92;;
42110;SDS011;27766;52.174;5.456;2022-11-14T01:20:09;43.20;;;26.80;;
42110;SDS011;27766;52.174;5.456;2022-11-14T01:22:39;40.90;;;25.20;;
42110;SDS011;27766;52.174;5.456;2022-11-14T01:25:06;41.80;;;26.30;;
42110;SDS011;27766;52.174;5.456;2022-11-14T01:27:34;37.03;;;26.02;;
42110;SDS011;27766;52.174;5.456;2022-11-14T01:30:01;39.38;;;26.02;;
42110;SDS011;27766;52.174;5.456;2022-11-14T01:32:28;38.08;;;25.63;;
42110;SDS011;27766;52.174;5.456;2022-11-14T01:34:55;37.45;;;26.25;;
42110;SDS011;27766;52.174;5.456;2022-11-14T01:37:22;36.90;;;25.40;;
42110;SDS011;27766;52.174;5.456;2022-11-14T01:39:49;39.70;;;27.25;;
42110;SDS011;27766;52.174;5.456;2022-11-14T01:42:16;37.75;;;27.33;;
42110;SDS011;27766;52.174;5.456;2022-11-14T01:44:48;39.38;;;26.65;;
42110;SDS011;27766;52.174;5.456;2022-11-14T01:47:21;41.38;;;26.85;;
42110;SDS011;27766;52.174;5.456;2022-11-14T01:49:53;39.58;;;27.58;;
42110;SDS011;27766;52.174;5.456;2022-11-14T01:52:24;42.03;;;26.30;;
42110;SDS011;27766;52.174;5.456;2022-11-14T01:54:56;41.78;;;27.45;;
42110;SDS011;27766;52.174;5.456;2022-11-14T01:57:30;45.58;;;28.30;;
42110;SDS011;27766;52.174;5.456;2022-11-14T02:00:03;41.88;;;26.83;;
42110;SDS011;27766;52.174;5.456;2022-11-14T02:02:33;47.17;;;29.08;;
42110;SDS011;27766;52.174;5.456;2022-11-14T02:05:05;40.88;;;26.45;;
42110;SDS011;27766;52.174;5.456;2022-11-14T02:07:37;41.45;;;27.90;;
42110;SDS011;27766;52.174;5.456;2022-11-14T02:10:14;46.22;;;28.70;;
42110;SDS011;27766;52.174;5.456;2022-11-14T02:12:43;38.20;;;28.08;;
42110;SDS011;27766;52.174;5.456;2022-11-14T02:15:12;48.78;;;28.35;;
42110;SDS011;27766;52.174;5.456;2022-11-14T02:17:40;44.15;;;28.45;;
42110;SDS011;27766;52.174;5.456;2022-11-14T02:22:37;42.53;;;28.27;;
42110;SDS011;27766;52.174;5.456;2022-11-14T02:25:06;44.90;;;27.42;;
42110;SDS011;27766;52.174;5.456;2022-11-14T02:27:36;46.40;;;28.35;;
42110;SDS011;27766;52.174;5.456;2022-11-14T02:30:06;40.10;;;27.35;;
42110;SDS011;27766;52.174;5.456;2022-11-14T02:32:36;41.85;;;28.27;;
42110;SDS011;27766;52.174;5.456;2022-11-14T02:35:23;48.38;;;29.42;;
42110;SDS011;27766;52.174;5.456;2022-11-14T02:37:50;42.38;;;29.50;;
42110;SDS011;27766;52.174;5.456;2022-11-14T02:40:17;43.22;;;28.77;;
42110;SDS011;27766;52.174;5.456;2022-11-14T02:42:45;39.40;;;27.60;;
42110;SDS011;27766;52.174;5.456;2022-11-14T02:45:11;45.45;;;29.13;;
42110;SDS011;27766;52.174;5.456;2022-11-14T02:47:39;42.78;;;29.65;;
42110;SDS011;27766;52.174;5.456;2022-11-14T02:50:06;50.63;;;29.50;;
42110;SDS011;27766;52.174;5.456;2022-11-14T02:52:33;43.22;;;27.45;;
42110;SDS011;27766;52.174;5.456;2022-11-14T02:55:00;46.58;;;27.02;;
42110;SDS011;27766;52.174;5.456;2022-11-14T02:57:27;45.25;;;28.08;;
42110;SDS011;27766;52.174;5.456;2022-11-14T02:59:54;41.88;;;28.88;;
42110;SDS011;27766;52.174;5.456;2022-11-14T03:02:21;47.08;;;29.00;;
42110;SDS011;27766;52.174;5.456;2022-11-14T03:04:48;51.03;;;28.08;;
42110;SDS011;27766;52.174;5.456;2022-11-14T03:07:16;45.72;;;28.02;;
42110;SDS011;27766;52.174;5.456;2022-11-14T03:09:43;47.45;;;29.90;;
42110;SDS011;27766;52.174;5.456;2022-11-14T03:12:10;42.90;;;26.13;;
42110;SDS011;27766;52.174;5.456;2022-11-14T03:14:37;47.92;;;29.75;;
42110;SDS011;27766;52.174;5.456;2022-11-14T03:17:04;42.10;;;28.00;;
42110;SDS011;27766;52.174;5.456;2022-11-14T03:19:31;47.95;;;27.67;;
42110;SDS011;27766;52.174;5.456;2022-11-14T03:21:58;43.78;;;27.55;;
42110;SDS011;27766;52.174;5.456;2022-11-14T03:24:25;37.00;;;25.98;;
42110;SDS011;27766;52.174;5.456;2022-11-14T03:26:52;41.17;;;27.45;;
42110;SDS011;27766;52.174;5.456;2022-11-14T03:29:19;46.03;;;28.27;;
42110;SDS011;27766;52.174;5.456;2022-11-14T03:31:46;39.90;;;26.27;;
42110;SDS011;27766;52.174;5.456;2022-11-14T03:34:13;49.60;;;28.67;;
42110;SDS011;27766;52.174;5.456;2022-11-14T03:36:40;44.28;;;27.85;;
42110;SDS011;27766;52.174;5.456;2022-11-14T03:39:08;46.15;;;27.85;;
42110;SDS011;27766;52.174;5.456;2022-11-14T03:41:35;47.70;;;28.25;;
42110;SDS011;27766;52.174;5.456;2022-11-14T03:44:02;46.13;;;29.80;;
42110;SDS011;27766;52.174;5.456;2022-11-14T03:46:29;40.00;;;27.15;;
42110;SDS011;27766;52.174;5.456;2022-11-14T03:48:56;50.53;;;29.15;;
42110;SDS011;27766;52.174;5.456;2022-11-14T03:51:23;51.05;;;29.05;;
42110;SDS011;27766;52.174;5.456;2022-11-14T03:53:50;40.42;;;27.77;;
42110;SDS011;27766;52.174;5.456;2022-11-14T03:56:17;42.95;;;30.17;;
42110;SDS011;27766;52.174;5.456;2022-11-14T03:58:44;43.60;;;27.98;;
42110;SDS011;27766;52.174;5.456;2022-11-14T04:01:11;44.28;;;27.13;;
42110;SDS011;27766;52.174;5.456;2022-11-14T04:03:38;45.05;;;29.90;;
42110;SDS011;27766;52.174;5.456;2022-11-14T04:06:06;48.28;;;29.15;;
42110;SDS011;27766;52.174;5.456;2022-11-14T04:08:33;45.55;;;27.73;;
42110;SDS011;27766;52.174;5.456;2022-11-14T04:11:00;44.03;;;28.95;;
42110;SDS011;27766;52.174;5.456;2022-11-14T04:13:27;48.08;;;30.00;;
42110;SDS011;27766;52.174;5.456;2022-11-14T04:15:57;51.78;;;29.02;;
42110;SDS011;27766;52.174;5.456;2022-11-14T04:18:25;52.30;;;29.70;;
42110;SDS011;27766;52.174;5.456;2022-11-14T04:20:52;50.15;;;29.25;;
42110;SDS011;27766;52.174;5.456;2022-11-14T04:23:20;56.10;;;27.67;;
42110;SDS011;27766;52.174;5.456;2022-11-14T04:25:47;46.58;;;27.90;;
42110;SDS011;27766;52.174;5.456;2022-11-14T04:28:14;52.50;;;29.60;;
42110;SDS011;27766;52.174;5.456;2022-11-14T04:30:41;44.65;;;29.77;;
42110;SDS011;27766;52.174;5.456;2022-11-14T04:33:10;50.78;;;28.60;;
42110;SDS011;27766;52.174;5.456;2022-11-14T04:35:37;48.05;;;28.25;;
42110;SDS011;27766;52.174;5.456;2022-11-14T04:38:05;43.97;;;28.17;;
42110;SDS011;27766;52.174;5.456;2022-11-14T04:40:32;47.42;;;28.02;;
42110;SDS011;27766;52.174;5.456;2022-11-14T04:42:59;43.22;;;27.15;;
42110;SDS011;27766;52.174;5.456;2022-11-14T04:45:26;43.00;;;27.77;;
42110;SDS011;27766;52.174;5.456;2022-11-14T04:47:53;46.80;;;28.80;;
42110;SDS011;27766;52.174;5.456;2022-11-14T04:50:20;43.78;;;26.90;;
42110;SDS011;27766;52.174;5.456;2022-11-14T04:52:50;53.17;;;28.00;;
42110;SDS011;27766;52.174;5.456;2022-11-14T04:55:19;46.05;;;27.88;;
42110;SDS011;27766;52.174;5.456;2022-11-14T04:57:46;42.50;;;26.80;;
42110;SDS011;27766;52.174;5.456;2022-11-14T05:00:13;52.00;;;28.15;;
42110;SDS011;27766;52.174;5.456;2022-11-14T05:02:40;49.95;;;28.60;;
42110;SDS011;27766;52.174;5.456;2022-11-14T05:05:07;47.42;;;27.35;;
42110;SDS011;27766;52.174;5.456;2022-11-14T05:07:35;51.03;;;28.13;;
42110;SDS011;27766;52.174;5.456;2022-11-14T05:10:02;45.63;;;27.48;;
42110;SDS011;27766;52.174;5.456;2022-11-14T05:12:30;50.95;;;27.65;;
42110;SDS011;27766;52.174;5.456;2022-11-14T05:14:57;49.05;;;28.25;;
42110;SDS011;27766;52.174;5.456;2022-11-14T05:17:24;50.45;;;28.05;;
42110;SDS011;27766;52.174;5.456;2022-11-14T05:19:51;37.78;;;25.02;;
42110;SDS011;27766;52.174;5.456;2022-11-14T05:22:18;41.42;;;26.25;;
42110;SDS011;27766;52.174;5.456;2022-11-14T05:24:45;46.10;;;26.42;;
42110;SDS011;27766;52.174;5.456;2022-11-14T05:27:12;46.83;;;28.00;;
42110;SDS011;27766;52.174;5.456;2022-11-14T05:29:39;45.05;;;25.92;;
42110;SDS011;27766;52.174;5.456;2022-11-14T05:32:06;46.83;;;25.98;;
42110;SDS011;27766;52.174;5.456;2022-11-14T05:34:39;44.67;;;28.07;;
42110;SDS011;27766;52.174;5.456;2022-11-14T05:37:06;44.45;;;27.00;;
42110;SDS011;27766;52.174;5.456;2022-11-14T05:39:34;40.13;;;25.50;;
42110;SDS011;27766;52.174;5.456;2022-11-14T05:42:01;49.35;;;26.45;;
42110;SDS011;27766;52.174;5.456;2022-11-14T05:44:28;44.42;;;26.48;;
42110;SDS011;27766;52.174;5.456;2022-11-14T05:46:55;44.28;;;28.13;;
42110;SDS011;27766;52.174;5.456;2022-11-14T05:49:22;41.90;;;25.38;;
42110;SDS011;27766;52.174;5.456;2022-11-14T05:51:49;44.15;;;26.60;;
42110;SDS011;27766;52.174;5.456;2022-11-14T05:54:16;44.22;;;26.25;;
42110;SDS011;27766;52.174;5.456;2022-11-14T05:56:43;46.72;;;26.83;;
42110;SDS011;27766;52.174;5.456;2022-11-14T05:59:10;43.55;;;25.35;;
42110;SDS011;27766;52.174;5.456;2022-11-14T06:01:37;45.00;;;25.08;;
42110;SDS011;27766;52.174;5.456;2022-11-14T06:04:05;36.75;;;23.85;;
42110;SDS011;27766;52.174;5.456;2022-11-14T06:06:32;46.33;;;26.05;;
42110;SDS011;27766;52.174;5.456;2022-11-14T06:08:59;43.95;;;24.45;;
42110;SDS011;27766;52.174;5.456;2022-11-14T06:11:26;44.35;;;25.08;;
42110;SDS011;27766;52.174;5.456;2022-11-14T06:13:53;38.85;;;25.15;;
42110;SDS011;27766;52.174;5.456;2022-11-14T06:16:20;43.28;;;24.98;;
42110;SDS011;27766;52.174;5.456;2022-11-14T06:18:47;44.85;;;26.02;;
42110;SDS011;27766;52.174;5.456;2022-11-14T06:21:15;37.90;;;23.08;;
42110;SDS011;27766;52.174;5.456;2022-11-14T06:23:47;43.05;;;23.00;;
42110;SDS011;27766;52.174;5.456;2022-11-14T06:28:49;39.53;;;24.65;;
42110;SDS011;27766;52.174;5.456;2022-11-14T06:31:17;41.85;;;24.17;;
42110;SDS011;27766;52.174;5.456;2022-11-14T06:33:46;36.28;;;23.85;;
42110;SDS011;27766;52.174;5.456;2022-11-14T06:36:13;38.53;;;23.90;;
42110;SDS011;27766;52.174;5.456;2022-11-14T06:38:41;35.25;;;23.70;;
42110;SDS011;27766;52.174;5.456;2022-11-14T06:41:09;37.10;;;24.40;;
42110;SDS011;27766;52.174;5.456;2022-11-14T06:43:37;39.17;;;24.90;;
42110;SDS011;27766;52.174;5.456;2022-11-14T06:46:07;45.17;;;23.75;;
42110;SDS011;27766;52.174;5.456;2022-11-14T06:48:35;39.83;;;25.65;;
42110;SDS011;27766;52.174;5.456;2022-11-14T06:51:03;45.92;;;24.48;;
42110;SDS011;27766;52.174;5.456;2022-11-14T06:53:32;35.28;;;22.83;;
42110;SDS011;27766;52.174;5.456;2022-11-14T06:56:02;39.42;;;24.83;;
42110;SDS011;27766;52.174;5.456;2022-11-14T06:58:31;38.95;;;24.02;;
42110;SDS011;27766;52.174;5.456;2022-11-14T07:01:04;41.67;;;23.70;;
42110;SDS011;27766;52.174;5.456;2022-11-14T07:03:32;43.25;;;24.40;;
42110;SDS011;27766;52.174;5.456;2022-11-14T07:06:00;39.70;;;23.95;;
42110;SDS011;27766;52.174;5.456;2022-11-14T07:08:27;39.17;;;22.67;;
42110;SDS011;27766;52.174;5.456;2022-11-14T07:11:04;40.38;;;23.83;;
42110;SDS011;27766;52.174;5.456;2022-11-14T07:13:33;36.25;;;23.52;;
42110;SDS011;27766;52.174;5.456;2022-11-14T07:16:01;38.25;;;23.00;;
42110;SDS011;27766;52.174;5.456;2022-11-14T07:18:29;40.13;;;26.52;;
42110;SDS011;27766;52.174;5.456;2022-11-14T07:20:59;42.22;;;25.30;;
42110;SDS011;27766;52.174;5.456;2022-11-14T07:23:27;39.00;;;23.58;;
42110;SDS011;27766;52.174;5.456;2022-11-14T07:25:54;37.95;;;22.70;;
42110;SDS011;27766;52.174;5.456;2022-11-14T07:28:25;39.22;;;23.00;;
42110;SDS011;27766;52.174;5.456;2022-11-14T07:30:54;39.53;;;23.63;;
42110;SDS011;27766;52.174;5.456;2022-11-14T07:33:20;42.70;;;24.00;;
42110;SDS011;27766;52.174;5.456;2022-11-14T07:35:49;33.08;;;23.23;;
42110;SDS011;27766;52.174;5.456;2022-11-14T07:38:16;36.38;;;23.58;;
42110;SDS011;27766;52.174;5.456;2022-11-14T07:40:51;35.65;;;22.08;;
42110;SDS011;27766;52.174;5.456;2022-11-14T07:43:26;38.63;;;22.45;;
42110;SDS011;27766;52.174;5.456;2022-11-14T07:45:57;38.00;;;24.35;;
42110;SDS011;27766;52.174;5.456;2022-11-14T07:48:29;37.13;;;22.20;;
42110;SDS011;27766;52.174;5.456;2022-11-14T07:51:00;33.50;;;21.92;;
42110;SDS011;27766;52.174;5.456;2022-11-14T07:53:28;37.38;;;22.27;;
42110;SDS011;27766;52.174;5.456;2022-11-14T07:55:56;38.90;;;22.10;;
42110;SDS011;27766;52.174;5.456;2022-11-14T07:58:27;33.88;;;21.20;;
42110;SDS011;27766;52.174;5.456;2022-11-14T08:00:55;33.63;;;21.38;;
42110;SDS011;27766;52.174;5.456;2022-11-14T08:03:22;33.17;;;21.17;;
42110;SDS011;27766;52.174;5.456;2022-11-14T08:05:49;37.25;;;22.33;;
42110;SDS011;27766;52.174;5.456;2022-11-14T08:08:16;36.65;;;22.38;;
42110;SDS011;27766;52.174;5.456;2022-11-14T08:10:43;34.22;;;22.33;;
42110;SDS011;27766;52.174;5.456;2022-11-14T08:13:10;35.97;;;22.20;;
42110;SDS011;27766;52.174;5.456;2022-11-14T08:15:57;35.20;;;21.33;;
42110;SDS011;27766;52.174;5.456;2022-11-14T08:18:25;35.25;;;21.15;;
42110;SDS011;27766;52.174;5.456;2022-11-14T08:20:53;37.00;;;21.45;;
42110;SDS011;27766;52.174;5.456;2022-11-14T08:23:23;38.30;;;21.27;;
42110;SDS011;27766;52.174;5.456;2022-11-14T08:25:50;35.17;;;21.88;;
42110;SDS011;27766;52.174;5.456;2022-11-14T08:28:17;31.38;;;20.50;;
42110;SDS011;27766;52.174;5.456;2022-11-14T08:30:44;37.53;;;20.73;;
42110;SDS011;27766;52.174;5.456;2022-11-14T08:33:11;32.42;;;21.08;;
42110;SDS011;27766;52.174;5.456;2022-11-14T08:35:39;38.63;;;20.58;;
42110;SDS011;27766;52.174;5.456;2022-11-14T08:38:06;32.30;;;19.98;;
42110;SDS011;27766;52.174;5.456;2022-11-14T08:40:33;33.08;;;20.35;;
42110;SDS011;27766;52.174;5.456;2022-11-14T08:43:00;31.27;;;19.02;;
42110;SDS011;27766;52.174;5.456;2022-11-14T08:45:28;32.55;;;19.38;;
42110;SDS011;27766;52.174;5.456;2022-11-14T08:47:55;34.92;;;19.77;;
42110;SDS011;27766;52.174;5.456;2022-11-14T08:50:22;29.65;;;19.27;;
42110;SDS011;27766;52.174;5.456;2022-11-14T08:52:50;34.70;;;20.02;;
42110;SDS011;27766;52.174;5.456;2022-11-14T08:55:18;30.90;;;18.77;;
42110;SDS011;27766;52.174;5.456;2022-11-14T08:57:46;30.80;;;20.27;;
42110;SDS011;27766;52.174;5.456;2022-11-14T09:00:15;30.13;;;17.88;;
42110;SDS011;27766;52.174;5.456;2022-11-14T09:02:43;32.03;;;18.63;;
42110;SDS011;27766;52.174;5.456;2022-11-14T09:05:10;24.75;;;17.27;;
42110;SDS011;27766;52.174;5.456;2022-11-14T09:07:38;27.75;;;17.67;;
42110;SDS011;27766;52.174;5.456;2022-11-14T09:10:05;26.60;;;17.13;;
42110;SDS011;27766;52.174;5.456;2022-11-14T09:12:33;23.00;;;16.15;;
42110;SDS011;27766;52.174;5.456;2022-11-14T09:15:00;29.80;;;17.60;;
42110;SDS011;27766;52.174;5.456;2022-11-14T09:17:27;25.38;;;17.35;;
42110;SDS011;27766;52.174;5.456;2022-11-14T09:19:54;28.02;;;16.95;;
42110;SDS011;27766;52.174;5.456;2022-11-14T09:22:21;23.92;;;18.08;;
42110;SDS011;27766;52.174;5.456;2022-11-14T09:24:49;26.65;;;16.50;;
42110;SDS011;27766;52.174;5.456;2022-11-14T09:27:17;21.98;;;15.75;;
42110;SDS011;27766;52.174;5.456;2022-11-14T09:29:44;25.40;;;15.73;;
42110;SDS011;27766;52.174;5.456;2022-11-14T09:32:11;25.20;;;16.23;;
42110;SDS011;27766;52.174;5.456;2022-11-14T09:34:38;22.70;;;15.93;;
42110;SDS011;27766;52.174;5.456;2022-11-14T09:37:08;22.75;;;15.40;;
42110;SDS011;27766;52.174;5.456;2022-11-14T09:39:35;21.00;;;14.50;;
42110;SDS011;27766;52.174;5.456;2022-11-14T09:47:23;19.38;;;14.68;;
42110;SDS011;27766;52.174;5.456;2022-11-14T09:49:56;20.13;;;14.57;;
42110;SDS011;27766;52.174;5.456;2022-11-14T09:52:30;24.73;;;14.07;;
42110;SDS011;27766;52.174;5.456;2022-11-14T09:57:46;22.25;;;13.77;;
42110;SDS011;27766;52.174;5.456;2022-11-14T10:00:21;19.35;;;13.77;;
42110;SDS011;27766;52.174;5.456;2022-11-14T10:05:57;23.48;;;13.32;;
42110;SDS011;27766;52.174;5.456;2022-11-14T10:11:28;15.80;;;12.13;;
42110;SDS011;27766;52.174;5.456;2022-11-14T10:16:53;19.33;;;12.93;;
42110;SDS011;27766;52.174;5.456;2022-11-14T10:22:50;17.08;;;11.90;;
42110;SDS011;27766;52.174;5.456;2022-11-14T10:28:30;19.08;;;12.50;;
42110;SDS011;27766;52.174;5.456;2022-11-14T10:34:18;13.10;;;10.50;;
42110;SDS011;27766;52.174;5.456;2022-11-14T10:37:05;16.42;;;11.60;;
42110;SDS011;27766;52.174;5.456;2022-11-14T10:39:50;14.00;;;10.88;;
42110;SDS011;27766;52.174;5.456;2022-11-14T10:45:40;12.43;;;10.50;;
42110;SDS011;27766;52.174;5.456;2022-11-14T10:47:40;15.68;;;11.23;;
42110;SDS011;27766;52.174;5.456;2022-11-14T10:50:22;15.63;;;11.30;;
42110;SDS011;27766;52.174;5.456;2022-11-14T10:52:55;17.77;;;10.52;;
42110;SDS011;27766;52.174;5.456;2022-11-14T10:55:26;12.43;;;10.80;;
42110;SDS011;27766;52.174;5.456;2022-11-14T10:58:14;18.45;;;11.30;;
42110;SDS011;27766;52.174;5.456;2022-11-14T11:00:41;14.90;;;10.68;;
42110;SDS011;27766;52.174;5.456;2022-11-14T11:03:08;15.55;;;11.05;;
42110;SDS011;27766;52.174;5.456;2022-11-14T11:05:43;14.43;;;10.23;;
42110;SDS011;27766;52.174;5.456;2022-11-14T11:08:20;14.52;;;10.82;;
42110;SDS011;27766;52.174;5.456;2022-11-14T11:11:10;18.33;;;11.65;;
42110;SDS011;27766;52.174;5.456;2022-11-14T11:13:58;20.30;;;11.25;;
42110;SDS011;27766;52.174;5.456;2022-11-14T11:16:27;14.07;;;10.98;;
42110;SDS011;27766;52.174;5.456;2022-11-14T11:19:17;17.67;;;12.57;;
42110;SDS011;27766;52.174;5.456;2022-11-14T11:21:50;14.73;;;11.68;;
42110;SDS011;27766;52.174;5.456;2022-11-14T11:24:31;18.40;;;12.60;;
42110;SDS011;27766;52.174;5.456;2022-11-14T11:29:44;16.50;;;12.45;;
42110;SDS011;27766;52.174;5.456;2022-11-14T11:32:22;17.00;;;12.48;;
42110;SDS011;27766;52.174;5.456;2022-11-14T11:34:51;16.02;;;11.65;;
42110;SDS011;27766;52.174;5.456;2022-11-14T11:37:29;21.40;;;13.18;;
42110;SDS011;27766;52.174;5.456;2022-11-14T11:40:02;17.85;;;12.60;;
42110;SDS011;27766;52.174;5.456;2022-11-14T11:45:44;18.02;;;12.40;;
42110;SDS011;27766;52.174;5.456;2022-11-14T11:48:17;16.60;;;12.00;;
42110;SDS011;27766;52.174;5.456;2022-11-14T11:50:46;19.27;;;12.85;;
42110;SDS011;27766;52.174;5.456;2022-11-14T11:55:48;15.82;;;12.23;;
42110;SDS011;27766;52.174;5.456;2022-11-14T12:01:01;19.40;;;13.30;;
42110;SDS011;27766;52.174;5.456;2022-11-14T12:03:28;18.55;;;13.15;;
42110;SDS011;27766;52.174;5.456;2022-11-14T12:11:21;16.23;;;12.88;;
42110;SDS011;27766;52.174;5.456;2022-11-14T12:14:01;20.23;;;13.55;;
42110;SDS011;27766;52.174;5.456;2022-11-14T12:19:55;18.05;;;12.85;;
42110;SDS011;27766;52.174;5.456;2022-11-14T12:22:54;18.52;;;13.20;;
42110;SDS011;27766;52.174;5.456;2022-11-14T12:26:00;21.02;;;13.48;;
42110;SDS011;27766;52.174;5.456;2022-11-14T12:31:36;19.90;;;13.35;;
42110;SDS011;27766;52.174;5.456;2022-11-14T12:34:11;24.80;;;14.63;;
42110;SDS011;27766;52.174;5.456;2022-11-14T12:36:52;15.95;;;13.00;;
42110;SDS011;27766;52.174;5.456;2022-11-14T12:39:23;19.55;;;13.85;;
42110;SDS011;27766;52.174;5.456;2022-11-14T12:42:09;21.52;;;14.30;;
42110;SDS011;27766;52.174;5.456;2022-11-14T12:44:41;21.95;;;15.98;;
42110;SDS011;27766;52.174;5.456;2022-11-14T12:58:00;23.25;;;17.02;;
42110;SDS011;27766;52.174;5.456;2022-11-14T13:00:56;22.25;;;16.42;;
42110;SDS011;27766;52.174;5.456;2022-11-14T13:09:06;23.65;;;17.83;;
42110;SDS011;27766;52.174;5.456;2022-11-14T13:11:55;24.63;;;17.38;;
42110;SDS011;27766;52.174;5.456;2022-11-14T13:14:47;26.08;;;17.77;;
42110;SDS011;27766;52.174;5.456;2022-11-14T13:17:35;23.40;;;17.35;;
42110;SDS011;27766;52.174;5.456;2022-11-14T13:20:25;23.67;;;17.33;;
42110;SDS011;27766;52.174;5.456;2022-11-14T13:33:43;25.63;;;17.90;;
42110;SDS011;27766;52.174;5.456;2022-11-14T13:36:35;26.13;;;17.25;;
42110;SDS011;27766;52.174;5.456;2022-11-14T13:41:58;36.90;;;21.35;;
42110;SDS011;27766;52.174;5.456;2022-11-14T13:49:55;29.25;;;17.45;;
42110;SDS011;27766;52.174;5.456;2022-11-14T13:52:25;25.50;;;17.42;;
42110;SDS011;27766;52.174;5.456;2022-11-14T13:54:57;22.70;;;17.27;;
42110;SDS011;27766;52.174;5.456;2022-11-14T13:57:32;23.45;;;17.23;;
42110;SDS011;27766;52.174;5.456;2022-11-14T14:00:07;30.23;;;18.70;;
42110;SDS011;27766;52.174;5.456;2022-11-14T14:08:24;26.92;;;18.42;;
42110;SDS011;27766;52.174;5.456;2022-11-14T14:11:27;24.85;;;18.35;;
42110;SDS011;27766;52.174;5.456;2022-11-14T14:16:56;28.52;;;18.67;;
42110;SDS011;27766;52.174;5.456;2022-11-14T14:22:17;27.58;;;18.25;;
42110;SDS011;27766;52.174;5.456;2022-11-14T14:25:20;28.50;;;19.33;;
42110;SDS011;27766;52.174;5.456;2022-11-14T14:28:02;29.10;;;19.73;;
42110;SDS011;27766;52.174;5.456;2022-11-14T14:30:37;32.22;;;19.42;;
42110;SDS011;27766;52.174;5.456;2022-11-14T14:35:34;26.50;;;19.70;;
42110;SDS011;27766;52.174;5.456;2022-11-14T14:38:20;33.27;;;21.03;;
42110;SDS011;27766;52.174;5.456;2022-11-14T14:40:51;29.67;;;19.98;;
42110;SDS011;27766;52.174;5.456;2022-11-14T14:43:39;29.60;;;19.55;;
42110;SDS011;27766;52.174;5.456;2022-11-14T14:46:07;26.75;;;20.20;;
42110;SDS011;27766;52.174;5.456;2022-11-14T14:48:35;35.75;;;20.25;;
42110;SDS011;27766;52.174;5.456;2022-11-14T14:51:09;30.30;;;21.02;;
42110;SDS011;27766;52.174;5.456;2022-11-14T14:53:39;33.28;;;21.63;;
42110;SDS011;27766;52.174;5.456;2022-11-14T14:56:19;29.95;;;19.85;;
42110;SDS011;27766;52.174;5.456;2022-11-14T14:58:47;32.58;;;21.50;;
42110;SDS011;27766;52.174;5.456;2022-11-14T15:01:15;30.42;;;21.88;;
42110;SDS011;27766;52.174;5.456;2022-11-14T15:03:56;31.88;;;21.60;;
42110;SDS011;27766;52.174;5.456;2022-11-14T15:06:35;30.23;;;21.67;;
42110;SDS011;27766;52.174;5.456;2022-11-14T15:09:08;32.35;;;22.10;;
42110;SDS011;27766;52.174;5.456;2022-11-14T15:11:45;30.85;;;20.90;;
42110;SDS011;27766;52.174;5.456;2022-11-14T15:14:15;32.95;;;22.83;;
42110;SDS011;27766;52.174;5.456;2022-11-14T15:16:46;30.40;;;19.80;;
42110;SDS011;27766;52.174;5.456;2022-11-14T15:19:20;29.83;;;21.35;;
42110;SDS011;27766;52.174;5.456;2022-11-14T15:22:03;29.60;;;20.35;;
42110;SDS011;27766;52.174;5.456;2022-11-14T15:27:44;31.65;;;22.05;;
42110;SDS011;27766;52.174;5.456;2022-11-14T15:30:21;32.72;;;21.38;;
42110;SDS011;27766;52.174;5.456;2022-11-14T15:32:54;36.63;;;21.10;;
42110;SDS011;27766;52.174;5.456;2022-11-14T15:38:01;31.52;;;20.60;;
42110;SDS011;27766;52.174;5.456;2022-11-14T15:43:46;25.55;;;20.10;;
42110;SDS011;27766;52.174;5.456;2022-11-14T15:49:07;30.98;;;20.42;;
42110;SDS011;27766;52.174;5.456;2022-11-14T15:51:41;29.80;;;20.27;;
42110;SDS011;27766;52.174;5.456;2022-11-14T15:56:52;33.83;;;21.70;;
42110;SDS011;27766;52.174;5.456;2022-11-14T15:59:20;33.70;;;22.80;;
42110;SDS011;27766;52.174;5.456;2022-11-14T16:01:49;31.58;;;21.52;;
42110;SDS011;27766;52.174;5.456;2022-11-14T16:04:20;25.85;;;21.13;;
42110;SDS011;27766;52.174;5.456;2022-11-14T16:06:50;36.70;;;21.80;;
42110;SDS011;27766;52.174;5.456;2022-11-14T16:09:18;39.75;;;22.60;;
42110;SDS011;27766;52.174;5.456;2022-11-14T16:11:46;34.40;;;20.15;;
42110;SDS011;27766;52.174;5.456;2022-11-14T16:14:14;31.20;;;21.58;;
42110;SDS011;27766;52.174;5.456;2022-11-14T16:16:42;34.92;;;21.67;;
42110;SDS011;27766;52.174;5.456;2022-11-14T16:19:11;29.20;;;21.55;;
42110;SDS011;27766;52.174;5.456;2022-11-14T16:21:40;31.85;;;22.00;;
42110;SDS011;27766;52.174;5.456;2022-11-14T16:24:42;31.95;;;20.90;;
42110;SDS011;27766;52.174;5.456;2022-11-14T16:27:01;34.85;;;21.95;;
42110;SDS011;27766;52.174;5.456;2022-11-14T16:29:28;39.22;;;23.38;;
42110;SDS011;27766;52.174;5.456;2022-11-14T16:31:55;35.25;;;22.27;;
42110;SDS011;27766;52.174;5.456;2022-11-14T16:34:24;31.02;;;21.23;;
42110;SDS011;27766;52.174;5.456;2022-11-14T16:36:57;36.33;;;22.52;;
42110;SDS011;27766;52.174;5.456;2022-11-14T16:39:26;30.90;;;20.83;;
42110;SDS011;27766;52.174;5.456;2022-11-14T16:42:02;35.17;;;23.08;;